sensor_id;sensor_type;location;lat;lon;timestamp;pressure;altitude;pressure_sealevel;temperature;humidity
70488;BME280;57976;48.174;16.370;2023-10-08T00:00:05;99331.08;;;20.89;38.57
70488;BME280;57976;48.174;16.370;2023-10-08T00:02:15;99327.66;;;20.90;38.68
70488;BME280;57976;48.174;16.370;2023-10-08T00:04:20;99317.48;;;20.88;38.69
70488;BME280;57976;48.174;16.370;2023-10-08T00:06:24;99316.11;;;20.88;38.89
70488;BME280;57976;48.174;16.370;2023-10-08T00:08:31;99311.95;;;20.86;38.82
70488;BME280;57976;48.174;16.370;2023-10-08T00:10:39;99303.59;;;20.84;38.96
70488;BME280;57976;48.174;16.370;2023-10-08T00:12:44;99306.46;;;20.83;39.14
70488;BME280;57976;48.174;16.370;2023-10-08T00:14:49;99310.53;;;20.82;39.18
70488;BME280;57976;48.174;16.370;2023-10-08T00:16:54;99310.73;;;20.79;39.24
70488;BME280;57976;48.174;16.370;2023-10-08T00:18:58;99306.79;;;20.79;39.36
70488;BME280;57976;48.174;16.370;2023-10-08T00:21:04;99295.56;;;20.77;39.47
70488;BME280;57976;48.174;16.370;2023-10-08T00:23:09;99292.91;;;20.76;39.50
70488;BME280;57976;48.174;16.370;2023-10-08T00:25:14;99290.52;;;20.75;39.67
70488;BME280;57976;48.174;16.370;2023-10-08T00:27:19;99287.06;;;20.74;39.76
70488;BME280;57976;48.174;16.370;2023-10-08T00:29:23;99294.47;;;20.72;39.74
70488;BME280;57976;48.174;16.370;2023-10-08T00:31:31;99291.33;;;20.72;40.01
70488;BME280;57976;48.174;16.370;2023-10-08T00:33:36;99277.20;;;20.70;40.10
70488;BME280;57976;48.174;16.370;2023-10-08T00:35:41;99280.98;;;20.70;40.27
70488;BME280;57976;48.174;16.370;2023-10-08T00:37:46;99279.63;;;20.71;40.22
70488;BME280;57976;48.174;16.370;2023-10-08T00:39:51;99276.44;;;20.71;40.41
70488;BME280;57976;48.174;16.370;2023-10-08T00:41:56;99272.59;;;20.74;40.38
70488;BME280;57976;48.174;16.370;2023-10-08T00:44:00;99268.11;;;20.77;40.32
70488;BME280;57976;48.174;16.370;2023-10-08T00:46:08;99264.21;;;20.78;40.16
70488;BME280;57976;48.174;16.370;2023-10-08T00:48:13;99272.18;;;20.82;40.22
70488;BME280;57976;48.174;16.370;2023-10-08T00:50:19;99262.27;;;20.86;40.17
70488;BME280;57976;48.174;16.370;2023-10-08T00:52:24;99261.79;;;20.89;40.07
70488;BME280;57976;48.174;16.370;2023-10-08T00:54:29;99256.48;;;20.90;39.99
70488;BME280;57976;48.174;16.370;2023-10-08T00:56:35;99260.65;;;20.91;39.90
70488;BME280;57976;48.174;16.370;2023-10-08T00:58:41;99266.46;;;20.92;39.92
70488;BME280;57976;48.174;16.370;2023-10-08T01:00:46;99272.41;;;20.94;39.83
70488;BME280;57976;48.174;16.370;2023-10-08T01:02:51;99277.13;;;20.95;39.74
70488;BME280;57976;48.174;16.370;2023-10-08T01:04:56;99279.73;;;20.95;39.74
70488;BME280;57976;48.174;16.370;2023-10-08T01:07:02;99278.43;;;20.96;39.74
70488;BME280;57976;48.174;16.370;2023-10-08T01:09:07;99278.98;;;20.98;39.64
70488;BME280;57976;48.174;16.370;2023-10-08T01:11:21;99273.98;;;20.97;39.81
70488;BME280;57976;48.174;16.370;2023-10-08T01:13:27;99271.39;;;20.98;39.79
70488;BME280;57976;48.174;16.370;2023-10-08T01:15:34;99271.13;;;20.97;39.80
70488;BME280;57976;48.174;16.370;2023-10-08T01:17:39;99274.64;;;20.97;39.80
70488;BME280;57976;48.174;16.370;2023-10-08T01:19:44;99276.21;;;20.96;39.81
70488;BME280;57976;48.174;16.370;2023-10-08T01:21:49;99263.69;;;20.95;39.83
70488;BME280;57976;48.174;16.370;2023-10-08T01:23:54;99266.35;;;20.95;39.99
70488;BME280;57976;48.174;16.370;2023-10-08T01:25:59;99263.31;;;20.93;40.07
70488;BME280;57976;48.174;16.370;2023-10-08T01:28:04;99253.66;;;20.93;40.04
70488;BME280;57976;48.174;16.370;2023-10-08T01:30:13;99247.88;;;20.92;40.13
70488;BME280;57976;48.174;16.370;2023-10-08T01:32:19;99246.85;;;20.91;40.20
70488;BME280;57976;48.174;16.370;2023-10-08T01:34:27;99248.47;;;20.89;40.25
70488;BME280;57976;48.174;16.370;2023-10-08T01:36:32;99247.98;;;20.88;40.29
70488;BME280;57976;48.174;16.370;2023-10-08T01:38:38;99243.27;;;20.88;40.49
70488;BME280;57976;48.174;16.370;2023-10-08T01:40:43;99256.38;;;20.88;40.53
70488;BME280;57976;48.174;16.370;2023-10-08T01:42:51;99251.98;;;20.88;40.65
70488;BME280;57976;48.174;16.370;2023-10-08T01:44:56;99254.81;;;20.87;40.76
70488;BME280;57976;48.174;16.370;2023-10-08T01:47:01;99250.70;;;20.88;40.61
70488;BME280;57976;48.174;16.370;2023-10-08T01:49:05;99251.83;;;20.87;40.58
70488;BME280;57976;48.174;16.370;2023-10-08T01:51:10;99256.86;;;20.87;40.59
70488;BME280;57976;48.174;16.370;2023-10-08T01:53:15;99251.49;;;20.86;40.70
70488;BME280;57976;48.174;16.370;2023-10-08T01:55:21;99252.30;;;20.85;40.76
70488;BME280;57976;48.174;16.370;2023-10-08T01:57:26;99258.20;;;20.84;40.74
70488;BME280;57976;48.174;16.370;2023-10-08T01:59:32;99267.52;;;20.83;40.62
70488;BME280;57976;48.174;16.370;2023-10-08T02:01:37;99272.89;;;20.83;40.75
70488;BME280;57976;48.174;16.370;2023-10-08T02:03:42;99264.38;;;20.83;40.70
70488;BME280;57976;48.174;16.370;2023-10-08T02:05:50;99254.41;;;20.82;40.61
70488;BME280;57976;48.174;16.370;2023-10-08T02:07:55;99256.36;;;20.80;40.57
70488;BME280;57976;48.174;16.370;2023-10-08T02:10:04;99253.60;;;20.79;40.56
70488;BME280;57976;48.174;16.370;2023-10-08T02:12:10;99250.67;;;20.77;40.47
70488;BME280;57976;48.174;16.370;2023-10-08T02:14:15;99249.10;;;20.77;40.50
70488;BME280;57976;48.174;16.370;2023-10-08T02:16:21;99253.81;;;20.76;40.48
70488;BME280;57976;48.174;16.370;2023-10-08T02:18:26;99260.58;;;20.75;40.51
70488;BME280;57976;48.174;16.370;2023-10-08T02:20:34;99255.32;;;20.72;40.62
70488;BME280;57976;48.174;16.370;2023-10-08T02:22:39;99264.85;;;20.71;40.71
70488;BME280;57976;48.174;16.370;2023-10-08T02:24:44;99262.52;;;20.71;40.69
70488;BME280;57976;48.174;16.370;2023-10-08T02:26:49;99268.27;;;20.70;40.90
70488;BME280;57976;48.174;16.370;2023-10-08T02:28:54;99268.91;;;20.66;40.99
70488;BME280;57976;48.174;16.370;2023-10-08T02:30:59;99260.13;;;20.66;41.18
70488;BME280;57976;48.174;16.370;2023-10-08T02:33:04;99262.17;;;20.62;41.12
70488;BME280;57976;48.174;16.370;2023-10-08T02:35:09;99250.21;;;20.61;41.41
70488;BME280;57976;48.174;16.370;2023-10-08T02:37:14;99253.95;;;20.61;41.47
70488;BME280;57976;48.174;16.370;2023-10-08T02:39:19;99257.90;;;20.60;41.50
70488;BME280;57976;48.174;16.370;2023-10-08T02:41:23;99265.42;;;20.57;41.76
70488;BME280;57976;48.174;16.370;2023-10-08T02:43:28;99260.97;;;20.56;41.85
70488;BME280;57976;48.174;16.370;2023-10-08T02:45:33;99258.27;;;20.55;42.01
70488;BME280;57976;48.174;16.370;2023-10-08T02:47:38;99263.63;;;20.53;42.08
70488;BME280;57976;48.174;16.370;2023-10-08T02:49:43;99255.86;;;20.50;42.27
70488;BME280;57976;48.174;16.370;2023-10-08T02:51:50;99256.89;;;20.48;42.33
70488;BME280;57976;48.174;16.370;2023-10-08T02:53:55;99254.40;;;20.47;42.61
70488;BME280;57976;48.174;16.370;2023-10-08T02:56:00;99250.17;;;20.45;42.64
70488;BME280;57976;48.174;16.370;2023-10-08T02:58:05;99254.81;;;20.44;42.81
70488;BME280;57976;48.174;16.370;2023-10-08T03:00:16;99247.73;;;20.43;42.89
70488;BME280;57976;48.174;16.370;2023-10-08T03:02:21;99241.99;;;20.42;43.08
70488;BME280;57976;48.174;16.370;2023-10-08T03:04:27;99250.87;;;20.41;43.12
70488;BME280;57976;48.174;16.370;2023-10-08T03:06:35;99253.47;;;20.40;43.37
70488;BME280;57976;48.174;16.370;2023-10-08T03:08:42;99247.89;;;20.40;43.54
70488;BME280;57976;48.174;16.370;2023-10-08T03:10:47;99252.65;;;20.41;43.69
70488;BME280;57976;48.174;16.370;2023-10-08T03:12:52;99253.15;;;20.40;43.82
70488;BME280;57976;48.174;16.370;2023-10-08T03:14:57;99242.10;;;20.41;43.92
70488;BME280;57976;48.174;16.370;2023-10-08T03:17:02;99244.70;;;20.41;43.93
70488;BME280;57976;48.174;16.370;2023-10-08T03:19:07;99246.16;;;20.41;44.15
70488;BME280;57976;48.174;16.370;2023-10-08T03:21:12;99243.06;;;20.41;44.28
70488;BME280;57976;48.174;16.370;2023-10-08T03:23:19;99244.91;;;20.39;44.39
70488;BME280;57976;48.174;16.370;2023-10-08T03:25:24;99239.98;;;20.38;44.36
70488;BME280;57976;48.174;16.370;2023-10-08T03:27:32;99240.89;;;20.39;44.56
70488;BME280;57976;48.174;16.370;2023-10-08T03:29:37;99244.69;;;20.37;44.59
70488;BME280;57976;48.174;16.370;2023-10-08T03:31:42;99243.23;;;20.37;44.79
70488;BME280;57976;48.174;16.370;2023-10-08T03:33:47;99247.33;;;20.38;44.88
70488;BME280;57976;48.174;16.370;2023-10-08T03:35:52;99245.76;;;20.37;45.01
70488;BME280;57976;48.174;16.370;2023-10-08T03:37:57;99243.22;;;20.34;44.99
70488;BME280;57976;48.174;16.370;2023-10-08T03:40:02;99234.13;;;20.36;45.12
70488;BME280;57976;48.174;16.370;2023-10-08T03:42:07;99238.61;;;20.36;45.21
70488;BME280;57976;48.174;16.370;2023-10-08T03:44:12;99236.67;;;20.36;45.20
70488;BME280;57976;48.174;16.370;2023-10-08T03:46:16;99244.52;;;20.35;45.26
70488;BME280;57976;48.174;16.370;2023-10-08T03:48:21;99236.21;;;20.33;45.42
70488;BME280;57976;48.174;16.370;2023-10-08T03:50:26;99257.33;;;20.32;45.53
70488;BME280;57976;48.174;16.370;2023-10-08T03:52:33;99247.96;;;20.32;45.54
70488;BME280;57976;48.174;16.370;2023-10-08T03:54:38;99241.42;;;20.32;45.50
70488;BME280;57976;48.174;16.370;2023-10-08T03:56:43;99241.20;;;20.31;45.63
70488;BME280;57976;48.174;16.370;2023-10-08T03:58:48;99241.04;;;20.30;45.60
70488;BME280;57976;48.174;16.370;2023-10-08T04:00:53;99253.36;;;20.28;45.75
70488;BME280;57976;48.174;16.370;2023-10-08T04:03:00;99251.46;;;20.28;45.77
70488;BME280;57976;48.174;16.370;2023-10-08T04:05:06;99260.34;;;20.26;45.71
70488;BME280;57976;48.174;16.370;2023-10-08T04:07:13;99263.54;;;20.25;45.89
70488;BME280;57976;48.174;16.370;2023-10-08T04:09:21;99270.77;;;20.25;45.98
70488;BME280;57976;48.174;16.370;2023-10-08T04:11:26;99266.39;;;20.25;45.93
70488;BME280;57976;48.174;16.370;2023-10-08T04:13:31;99266.28;;;20.25;45.85
70488;BME280;57976;48.174;16.370;2023-10-08T04:15:36;99258.88;;;20.25;45.94
70488;BME280;57976;48.174;16.370;2023-10-08T04:17:41;99259.42;;;20.25;45.99
70488;BME280;57976;48.174;16.370;2023-10-08T04:19:46;99251.67;;;20.25;45.93
70488;BME280;57976;48.174;16.370;2023-10-08T04:21:51;99253.02;;;20.24;45.89
70488;BME280;57976;48.174;16.370;2023-10-08T04:23:59;99244.52;;;20.24;45.98
70488;BME280;57976;48.174;16.370;2023-10-08T04:26:04;99236.13;;;20.23;45.93
70488;BME280;57976;48.174;16.370;2023-10-08T04:28:09;99235.16;;;20.23;45.94
70488;BME280;57976;48.174;16.370;2023-10-08T04:30:15;99233.05;;;20.22;46.01
70488;BME280;57976;48.174;16.370;2023-10-08T04:32:19;99231.34;;;20.20;46.10
70488;BME280;57976;48.174;16.370;2023-10-08T04:34:24;99230.20;;;20.19;45.97
70488;BME280;57976;48.174;16.370;2023-10-08T04:36:31;99235.61;;;20.18;46.06
70488;BME280;57976;48.174;16.370;2023-10-08T04:38:36;99238.80;;;20.17;46.16
70488;BME280;57976;48.174;16.370;2023-10-08T04:40:44;99232.52;;;20.16;46.36
70488;BME280;57976;48.174;16.370;2023-10-08T04:42:51;99232.94;;;20.15;46.31
70488;BME280;57976;48.174;16.370;2023-10-08T04:44:56;99225.41;;;20.14;46.23
70488;BME280;57976;48.174;16.370;2023-10-08T04:47:01;99230.17;;;20.11;46.33
70488;BME280;57976;48.174;16.370;2023-10-08T04:49:06;99221.08;;;20.11;46.56
70488;BME280;57976;48.174;16.370;2023-10-08T04:51:11;99218.96;;;20.11;46.67
70488;BME280;57976;48.174;16.370;2023-10-08T04:53:19;99216.92;;;20.13;46.64
70488;BME280;57976;48.174;16.370;2023-10-08T04:55:23;99218.48;;;20.13;46.75
70488;BME280;57976;48.174;16.370;2023-10-08T04:57:31;99222.01;;;20.14;46.91
70488;BME280;57976;48.174;16.370;2023-10-08T04:59:36;99219.56;;;20.14;46.77
70488;BME280;57976;48.174;16.370;2023-10-08T05:01:41;99229.42;;;20.15;46.80
70488;BME280;57976;48.174;16.370;2023-10-08T05:03:47;99235.98;;;20.14;46.94
70488;BME280;57976;48.174;16.370;2023-10-08T05:05:53;99235.65;;;20.15;47.06
70488;BME280;57976;48.174;16.370;2023-10-08T05:07:57;99235.05;;;20.14;47.36
70488;BME280;57976;48.174;16.370;2023-10-08T05:10:02;99233.70;;;20.14;47.19
70488;BME280;57976;48.174;16.370;2023-10-08T05:12:07;99235.97;;;20.14;47.20
70488;BME280;57976;48.174;16.370;2023-10-08T05:14:12;99242.24;;;20.14;47.25
70488;BME280;57976;48.174;16.370;2023-10-08T05:16:17;99242.63;;;20.14;47.42
70488;BME280;57976;48.174;16.370;2023-10-08T05:18:23;99254.85;;;20.14;47.56
70488;BME280;57976;48.174;16.370;2023-10-08T05:20:28;99255.71;;;20.14;47.53
70488;BME280;57976;48.174;16.370;2023-10-08T05:22:37;99257.18;;;20.13;47.59
70488;BME280;57976;48.174;16.370;2023-10-08T05:24:42;99253.10;;;20.12;47.60
70488;BME280;57976;48.174;16.370;2023-10-08T05:26:50;99255.44;;;20.13;47.68
70488;BME280;57976;48.174;16.370;2023-10-08T05:28:55;99256.69;;;20.14;47.80
70488;BME280;57976;48.174;16.370;2023-10-08T05:31:08;99260.70;;;20.15;47.76
70488;BME280;57976;48.174;16.370;2023-10-08T05:33:13;99262.00;;;20.16;47.80
70488;BME280;57976;48.174;16.370;2023-10-08T05:35:18;99267.52;;;20.17;47.83
70488;BME280;57976;48.174;16.370;2023-10-08T05:37:23;99264.95;;;20.19;47.93
70488;BME280;57976;48.174;16.370;2023-10-08T05:39:28;99267.70;;;20.19;47.93
70488;BME280;57976;48.174;16.370;2023-10-08T05:41:32;99268.38;;;20.21;48.01
70488;BME280;57976;48.174;16.370;2023-10-08T05:43:38;99272.55;;;20.21;47.92
70488;BME280;57976;48.174;16.370;2023-10-08T05:45:43;99278.23;;;20.22;48.02
70488;BME280;57976;48.174;16.370;2023-10-08T05:47:48;99289.05;;;20.22;47.94
70488;BME280;57976;48.174;16.370;2023-10-08T05:49:53;99285.27;;;20.23;48.05
70488;BME280;57976;48.174;16.370;2023-10-08T05:51:57;99286.78;;;20.23;48.09
70488;BME280;57976;48.174;16.370;2023-10-08T05:54:02;99285.43;;;20.23;48.09
70488;BME280;57976;48.174;16.370;2023-10-08T05:56:07;99281.70;;;20.23;48.40
70488;BME280;57976;48.174;16.370;2023-10-08T05:58:12;99279.39;;;20.24;48.29
70488;BME280;57976;48.174;16.370;2023-10-08T06:00:17;99276.67;;;20.23;48.38
70488;BME280;57976;48.174;16.370;2023-10-08T06:02:23;99281.33;;;20.22;48.41
70488;BME280;57976;48.174;16.370;2023-10-08T06:04:29;99273.68;;;20.22;48.31
70488;BME280;57976;48.174;16.370;2023-10-08T06:06:37;99273.02;;;20.21;48.31
70488;BME280;57976;48.174;16.370;2023-10-08T06:08:45;99277.96;;;20.22;48.52
70488;BME280;57976;48.174;16.370;2023-10-08T06:10:50;99281.70;;;20.23;48.53
70488;BME280;57976;48.174;16.370;2023-10-08T06:12:58;99291.17;;;20.24;48.65
70488;BME280;57976;48.174;16.370;2023-10-08T06:15:04;99293.08;;;20.25;48.54
70488;BME280;57976;48.174;16.370;2023-10-08T06:17:09;99297.63;;;20.26;48.68
70488;BME280;57976;48.174;16.370;2023-10-08T06:19:14;99311.11;;;20.29;48.66
70488;BME280;57976;48.174;16.370;2023-10-08T06:21:19;99296.02;;;20.32;48.50
70488;BME280;57976;48.174;16.370;2023-10-08T06:23:30;99308.16;;;20.34;48.53
70488;BME280;57976;48.174;16.370;2023-10-08T06:25:35;99313.20;;;20.36;48.55
70488;BME280;57976;48.174;16.370;2023-10-08T06:27:40;99322.14;;;20.37;48.55
70488;BME280;57976;48.174;16.370;2023-10-08T06:29:45;99324.80;;;20.39;48.60
70488;BME280;57976;48.174;16.370;2023-10-08T06:31:49;99329.35;;;20.40;48.52
70488;BME280;57976;48.174;16.370;2023-10-08T06:33:54;99327.95;;;20.42;48.55
70488;BME280;57976;48.174;16.370;2023-10-08T06:35:59;99328.02;;;20.45;48.44
70488;BME280;57976;48.174;16.370;2023-10-08T06:38:04;99322.06;;;20.46;48.47
70488;BME280;57976;48.174;16.370;2023-10-08T06:40:11;99332.09;;;20.49;48.41
70488;BME280;57976;48.174;16.370;2023-10-08T06:42:16;99322.80;;;20.52;48.32
70488;BME280;57976;48.174;16.370;2023-10-08T06:44:20;99321.02;;;20.56;48.09
70488;BME280;57976;48.174;16.370;2023-10-08T06:46:25;99315.39;;;20.57;48.16
70488;BME280;57976;48.174;16.370;2023-10-08T06:48:30;99323.46;;;20.61;48.03
70488;BME280;57976;48.174;16.370;2023-10-08T06:50:35;99345.95;;;20.63;48.01
70488;BME280;57976;48.174;16.370;2023-10-08T06:52:40;99354.19;;;20.67;47.87
70488;BME280;57976;48.174;16.370;2023-10-08T06:54:45;99351.17;;;20.71;47.98
70488;BME280;57976;48.174;16.370;2023-10-08T06:56:49;99358.11;;;20.75;47.89
70488;BME280;57976;48.174;16.370;2023-10-08T06:58:54;99353.64;;;20.79;47.85
70488;BME280;57976;48.174;16.370;2023-10-08T07:00:59;99351.52;;;20.83;47.78
70488;BME280;57976;48.174;16.370;2023-10-08T07:03:07;99363.30;;;20.85;47.79
70488;BME280;57976;48.174;16.370;2023-10-08T07:05:12;99364.23;;;20.88;47.74
70488;BME280;57976;48.174;16.370;2023-10-08T07:07:18;99369.92;;;20.91;47.67
70488;BME280;57976;48.174;16.370;2023-10-08T07:09:22;99372.15;;;20.93;47.76
70488;BME280;57976;48.174;16.370;2023-10-08T07:11:28;99365.27;;;20.97;47.65
70488;BME280;57976;48.174;16.370;2023-10-08T07:13:32;99355.85;;;20.98;47.75
70488;BME280;57976;48.174;16.370;2023-10-08T07:15:38;99359.54;;;21.01;47.86
70488;BME280;57976;48.174;16.370;2023-10-08T07:17:45;99362.35;;;21.03;47.86
70488;BME280;57976;48.174;16.370;2023-10-08T07:19:50;99356.17;;;21.05;47.86
70488;BME280;57976;48.174;16.370;2023-10-08T07:21:56;99355.59;;;21.10;48.03
70488;BME280;57976;48.174;16.370;2023-10-08T07:24:00;99360.85;;;21.13;47.90
70488;BME280;57976;48.174;16.370;2023-10-08T07:26:05;99355.76;;;21.15;48.02
70488;BME280;57976;48.174;16.370;2023-10-08T07:28:10;99360.73;;;21.16;47.93
70488;BME280;57976;48.174;16.370;2023-10-08T07:30:18;99346.97;;;21.17;48.07
70488;BME280;57976;48.174;16.370;2023-10-08T07:32:24;99351.37;;;21.19;47.99
70488;BME280;57976;48.174;16.370;2023-10-08T07:34:29;99351.55;;;21.22;47.97
70488;BME280;57976;48.174;16.370;2023-10-08T07:36:37;99348.23;;;21.24;48.10
70488;BME280;57976;48.174;16.370;2023-10-08T07:38:42;99347.14;;;21.27;48.03
70488;BME280;57976;48.174;16.370;2023-10-08T07:40:47;99344.56;;;21.34;48.08
70488;BME280;57976;48.174;16.370;2023-10-08T07:42:55;99346.63;;;21.39;47.98
70488;BME280;57976;48.174;16.370;2023-10-08T07:45:00;99359.14;;;21.44;48.06
70488;BME280;57976;48.174;16.370;2023-10-08T07:47:05;99364.95;;;21.49;47.86
70488;BME280;57976;48.174;16.370;2023-10-08T07:49:10;99365.39;;;21.54;47.65
70488;BME280;57976;48.174;16.370;2023-10-08T07:51:15;99369.35;;;21.62;47.65
70488;BME280;57976;48.174;16.370;2023-10-08T07:53:20;99379.10;;;21.67;47.47
70488;BME280;57976;48.174;16.370;2023-10-08T07:55:25;99386.54;;;21.71;47.37
70488;BME280;57976;48.174;16.370;2023-10-08T07:57:30;99397.11;;;21.76;47.24
70488;BME280;57976;48.174;16.370;2023-10-08T07:59:35;99404.55;;;21.77;47.10
70488;BME280;57976;48.174;16.370;2023-10-08T08:01:43;99412.25;;;21.76;47.21
70488;BME280;57976;48.174;16.370;2023-10-08T08:03:48;99431.56;;;21.78;47.21
70488;BME280;57976;48.174;16.370;2023-10-08T08:05:53;99412.91;;;21.79;47.18
70488;BME280;57976;48.174;16.370;2023-10-08T08:07:58;99420.82;;;21.77;47.42
70488;BME280;57976;48.174;16.370;2023-10-08T08:10:03;99412.15;;;21.75;47.64
70488;BME280;57976;48.174;16.370;2023-10-08T08:12:08;99416.48;;;21.74;47.78
70488;BME280;57976;48.174;16.370;2023-10-08T08:14:13;99431.56;;;21.71;48.08
70488;BME280;57976;48.174;16.370;2023-10-08T08:16:18;99443.16;;;21.68;48.26
70488;BME280;57976;48.174;16.370;2023-10-08T08:18:23;99443.16;;;21.65;48.26
70488;BME280;57976;48.174;16.370;2023-10-08T08:20:28;99438.48;;;21.60;48.45
70488;BME280;57976;48.174;16.370;2023-10-08T08:22:33;99446.09;;;21.57;48.68
70488;BME280;57976;48.174;16.370;2023-10-08T08:24:38;99443.09;;;21.54;48.77
70488;BME280;57976;48.174;16.370;2023-10-08T08:26:42;99452.73;;;21.51;48.83
70488;BME280;57976;48.174;16.370;2023-10-08T08:28:47;99451.92;;;21.46;49.02
70488;BME280;57976;48.174;16.370;2023-10-08T08:30:52;99451.42;;;21.43;49.14
70488;BME280;57976;48.174;16.370;2023-10-08T08:32:57;99436.40;;;21.41;49.28
70488;BME280;57976;48.174;16.370;2023-10-08T08:35:02;99437.60;;;21.41;49.36
70488;BME280;57976;48.174;16.370;2023-10-08T08:37:07;99438.95;;;21.40;49.53
70488;BME280;57976;48.174;16.370;2023-10-08T08:39:15;99453.65;;;21.41;49.83
70488;BME280;57976;48.174;16.370;2023-10-08T08:41:20;99442.90;;;21.39;49.94
70488;BME280;57976;48.174;16.370;2023-10-08T08:43:25;99451.91;;;21.36;50.51
70488;BME280;57976;48.174;16.370;2023-10-08T08:45:30;99459.70;;;21.33;50.95
70488;BME280;57976;48.174;16.370;2023-10-08T08:47:36;99469.84;;;21.33;51.10
70488;BME280;57976;48.174;16.370;2023-10-08T08:49:43;99462.44;;;21.27;51.22
70488;BME280;57976;48.174;16.370;2023-10-08T08:51:51;99467.97;;;21.25;51.11
70488;BME280;57976;48.174;16.370;2023-10-08T08:53:56;99473.33;;;21.21;51.17
70488;BME280;57976;48.174;16.370;2023-10-08T08:56:02;99478.30;;;21.18;51.48
70488;BME280;57976;48.174;16.370;2023-10-08T08:58:09;99486.80;;;21.14;51.74
70488;BME280;57976;48.174;16.370;2023-10-08T09:00:16;99482.07;;;21.12;51.75
70488;BME280;57976;48.174;16.370;2023-10-08T09:02:22;99485.74;;;21.10;52.23
70488;BME280;57976;48.174;16.370;2023-10-08T09:04:30;99492.36;;;21.08;52.47
70488;BME280;57976;48.174;16.370;2023-10-08T09:06:36;99505.41;;;21.07;53.17
70488;BME280;57976;48.174;16.370;2023-10-08T09:08:41;99522.30;;;21.05;54.14
70488;BME280;57976;48.174;16.370;2023-10-08T09:10:46;99530.92;;;21.01;58.66
70488;BME280;57976;48.174;16.370;2023-10-08T09:12:51;99553.13;;;20.81;62.73
70488;BME280;57976;48.174;16.370;2023-10-08T09:15:01;99575.70;;;20.50;65.21
70488;BME280;57976;48.174;16.370;2023-10-08T09:17:06;99585.76;;;20.14;68.01
70488;BME280;57976;48.174;16.370;2023-10-08T09:19:11;99593.71;;;19.87;69.28
70488;BME280;57976;48.174;16.370;2023-10-08T09:21:20;99597.62;;;19.64;70.76
70488;BME280;57976;48.174;16.370;2023-10-08T09:23:25;99617.62;;;19.46;71.61
70488;BME280;57976;48.174;16.370;2023-10-08T09:25:30;99620.37;;;19.31;72.47
70488;BME280;57976;48.174;16.370;2023-10-08T09:27:35;99624.08;;;19.15;72.19
70488;BME280;57976;48.174;16.370;2023-10-08T09:29:40;99628.98;;;18.99;71.99
70488;BME280;57976;48.174;16.370;2023-10-08T09:31:53;99630.49;;;18.85;72.42
70488;BME280;57976;48.174;16.370;2023-10-08T09:33:58;99632.48;;;18.74;71.87
70488;BME280;57976;48.174;16.370;2023-10-08T09:36:07;99644.02;;;18.67;72.85
70488;BME280;57976;48.174;16.370;2023-10-08T09:38:12;99652.58;;;18.58;73.11
70488;BME280;57976;48.174;16.370;2023-10-08T09:40:18;99650.08;;;18.46;73.14
70488;BME280;57976;48.174;16.370;2023-10-08T09:42:24;99646.75;;;18.35;73.33
70488;BME280;57976;48.174;16.370;2023-10-08T09:44:31;99651.75;;;18.28;73.22
70488;BME280;57976;48.174;16.370;2023-10-08T09:46:38;99653.91;;;18.23;73.61
70488;BME280;57976;48.174;16.370;2023-10-08T09:48:50;99672.20;;;18.16;73.75
70488;BME280;57976;48.174;16.370;2023-10-08T09:50:56;99674.36;;;18.12;73.84
70488;BME280;57976;48.174;16.370;2023-10-08T09:53:09;99682.83;;;18.08;73.56
70488;BME280;57976;48.174;16.370;2023-10-08T09:55:15;99693.51;;;18.05;73.90
70488;BME280;57976;48.174;16.370;2023-10-08T09:57:23;99693.89;;;18.03;74.59
70488;BME280;57976;48.174;16.370;2023-10-08T09:59:28;99695.97;;;17.97;75.96
70488;BME280;57976;48.174;16.370;2023-10-08T10:01:33;99717.70;;;17.89;76.40
70488;BME280;57976;48.174;16.370;2023-10-08T10:03:39;99728.24;;;17.80;77.67
70488;BME280;57976;48.174;16.370;2023-10-08T10:05:45;99723.21;;;17.66;77.62
70488;BME280;57976;48.174;16.370;2023-10-08T10:07:50;99734.10;;;17.53;78.35
70488;BME280;57976;48.174;16.370;2023-10-08T10:09:59;99738.71;;;17.41;79.14
70488;BME280;57976;48.174;16.370;2023-10-08T10:12:06;99747.88;;;17.29;80.19
70488;BME280;57976;48.174;16.370;2023-10-08T10:14:11;99757.02;;;17.18;81.09
70488;BME280;57976;48.174;16.370;2023-10-08T10:16:20;99748.41;;;17.12;80.68
70488;BME280;57976;48.174;16.370;2023-10-08T10:18:30;99756.09;;;17.08;81.12
70488;BME280;57976;48.174;16.370;2023-10-08T10:20:35;99764.63;;;17.08;80.70
70488;BME280;57976;48.174;16.370;2023-10-08T10:22:43;99777.23;;;17.05;80.64
70488;BME280;57976;48.174;16.370;2023-10-08T10:24:48;99778.52;;;16.97;80.83
70488;BME280;57976;48.174;16.370;2023-10-08T10:27:10;99778.66;;;16.85;82.10
70488;BME280;57976;48.174;16.370;2023-10-08T10:29:22;99794.06;;;16.73;82.64
70488;BME280;57976;48.174;16.370;2023-10-08T10:31:27;99797.96;;;16.66;82.64
70488;BME280;57976;48.174;16.370;2023-10-08T10:33:36;99788.95;;;16.61;82.87
70488;BME280;57976;48.174;16.370;2023-10-08T10:35:41;99792.88;;;16.57;82.55
70488;BME280;57976;48.174;16.370;2023-10-08T10:37:46;99799.54;;;16.55;82.88
70488;BME280;57976;48.174;16.370;2023-10-08T10:39:57;99810.17;;;16.52;83.36
70488;BME280;57976;48.174;16.370;2023-10-08T10:42:03;99808.98;;;16.47;82.93
70488;BME280;57976;48.174;16.370;2023-10-08T10:44:08;99817.77;;;16.42;83.28
70488;BME280;57976;48.174;16.370;2023-10-08T10:46:13;99822.54;;;16.40;84.09
70488;BME280;57976;48.174;16.370;2023-10-08T10:48:18;99840.85;;;16.35;84.83
70488;BME280;57976;48.174;16.370;2023-10-08T10:50:23;99840.33;;;16.30;85.77
70488;BME280;57976;48.174;16.370;2023-10-08T10:52:31;99848.50;;;16.26;86.18
70488;BME280;57976;48.174;16.370;2023-10-08T10:54:37;99846.23;;;16.18;86.81
70488;BME280;57976;48.174;16.370;2023-10-08T10:56:43;99847.80;;;16.08;87.82